Airfield :
LOGIN :

Register | Disclaimer

   EN    FR    IT 

 










Legend :    VFR   Marginal VFR   IFR   Intensive IFR   Very Intensive IFR
Visi :
Ceiling :
>= 8 km
>= 3000ft
5 to 8 km
1000 to 3000 ft
1500m to 5 km
500 to 1000 ft
800 to 1500m
200 to 500 ft
< 800m
< 200 ft
Symbols :   Thunderstorms  Fog  Heavy snow  Heavy precipitations  Wind > 20 kt
SIGMETs :     Misc.  Thunderstorms  Icing  Turbulence  Mountain Waves  Volcanic Ashes






- Airport Elevation : 36 ft
- IATA code : GJL


DAAV - Jijel Ferhat Abbas

CURRENT METAR :
  • 171200Z 02007KT 340V060 9999 FEW020 19/11 Q1015

EXPIRED METARs :
  • 171100Z 03008KT 350V070 9999 FEW020 18/10 Q1015
  • 171000Z 02007KT 340V070 9999 FEW020 18/11 Q1015
  • 170900Z 03006KT 340V070 9999 FEW020 FEW023TCU 18/11 Q1015
  • 170800Z 03006KT 350V070 9999 FEW020 FEW023TCU 17/13 Q1015

TAF TAF DAAV
Valid from the 17 at 12:00 until the 18 at 12:00 UTC


171100Z 1712/1812 01008KT 9999 FEW020
PROB30
TEMPO 1712/1720 28012KT FEW023TCU



MET'MAP, your aeronautical weather chart ! - Copyright ORBIFLY December 2007 - Disclaimer

ORBIFLY MET'MAP TEAM :

Programming & Development : Alexandra Zaïnal
Original concept : Baudouin d'Aumeries
Technical & hardware support : Manuel Goepfert
Assistance : Marc-Olivier Méhu




SOURCES & CREDITS :

   NOAA